createdAt,value
2022-11-21T00:01:20.695Z,0.10
2022-11-21T00:03:48.159Z,0.10
2022-11-21T00:06:15.706Z,0.20
2022-11-21T00:08:43.160Z,0.10
2022-11-21T00:11:10.276Z,0.30
2022-11-21T00:13:37.726Z,0.10
2022-11-21T00:16:05.726Z,0.30
2022-11-21T00:18:34.510Z,0.30
2022-11-21T00:21:05.822Z,0.20
2022-11-21T00:23:32.927Z,0.30
2022-11-21T00:25:59.970Z,0.10
2022-11-21T00:28:27.031Z,0.20
2022-11-21T00:30:54.053Z,0.15
2022-11-21T00:33:21.116Z,0.20
2022-11-21T00:35:48.195Z,0.28
2022-11-21T00:38:15.177Z,0.10
2022-11-21T00:40:44.845Z,0.20
2022-11-21T00:43:12.237Z,1.48
2022-11-21T00:45:40.417Z,1.58
2022-11-21T00:48:07.601Z,1.90
2022-11-21T00:50:34.669Z,1.70
2022-11-21T00:53:01.744Z,2.22
2022-11-21T00:55:28.865Z,2.25
2022-11-21T00:57:55.975Z,1.95
2022-11-21T01:00:23.065Z,2.10
2022-11-21T01:02:50.095Z,2.00
2022-11-21T01:05:17.195Z,1.70
2022-11-21T01:07:44.363Z,2.10
2022-11-21T01:10:11.537Z,2.15
2022-11-21T01:12:38.578Z,1.90
2022-11-21T01:15:05.886Z,2.00
2022-11-21T01:17:33.453Z,2.00
2022-11-21T01:20:00.619Z,1.90
2022-11-21T01:22:27.353Z,2.17
2022-11-21T01:24:54.395Z,1.90
2022-11-21T01:27:21.548Z,1.80
2022-11-21T01:29:48.508Z,1.70
2022-11-21T01:32:15.584Z,1.97
2022-11-21T01:34:42.640Z,2.10
2022-11-21T01:37:09.736Z,1.80
2022-11-21T01:39:36.823Z,2.00
2022-11-21T01:42:03.971Z,1.60
2022-11-21T01:44:48.540Z,1.90
2022-11-21T01:47:15.713Z,1.70
2022-11-21T01:49:42.915Z,1.75
2022-11-21T01:52:11.521Z,1.80
2022-11-21T01:54:38.582Z,2.00
2022-11-21T01:57:25.537Z,1.98
2022-11-21T01:59:59.972Z,1.60
2022-11-21T02:02:31.815Z,1.75
2022-11-21T02:05:00.552Z,1.60
2022-11-21T02:07:28.902Z,1.15
2022-11-21T02:09:58.220Z,1.40
2022-11-21T02:12:27.766Z,1.33
2022-11-21T02:14:55.484Z,1.58
2022-11-21T02:17:22.552Z,1.58
2022-11-21T02:19:58.495Z,1.23
2022-11-21T02:22:45.464Z,0.77
2022-11-21T02:25:15.859Z,0.30
2022-11-21T02:27:42.903Z,0.20
2022-11-21T02:30:10.659Z,0.20
2022-11-21T02:32:39.071Z,0.10
2022-11-21T02:35:06.319Z,0.30
2022-11-21T02:37:33.979Z,0.20
2022-11-21T02:40:02.360Z,0.10
2022-11-21T02:42:32.227Z,0.10
2022-11-21T02:45:07.209Z,0.13
2022-11-21T02:47:34.839Z,0.30
2022-11-21T02:50:09.682Z,0.17
2022-11-21T02:52:36.770Z,0.10
2022-11-21T02:55:03.879Z,0.20
2022-11-21T02:57:30.974Z,0.10
2022-11-21T02:59:58.153Z,0.70
2022-11-21T03:02:25.372Z,0.30
2022-11-21T03:04:52.427Z,0.13
2022-11-21T03:07:19.532Z,0.10
2022-11-21T03:09:46.688Z,0.20
2022-11-21T03:12:13.718Z,0.17
2022-11-21T03:14:40.794Z,0.50
2022-11-21T03:17:07.815Z,0.10
2022-11-21T03:19:34.902Z,0.10
2022-11-21T03:22:01.975Z,0.20
2022-11-21T03:24:29.306Z,0.20
2022-11-21T03:26:57.066Z,0.17
2022-11-21T03:29:24.148Z,0.10
2022-11-21T03:31:51.358Z,0.13
2022-11-21T03:34:18.627Z,0.30
2022-11-21T03:36:45.650Z,0.20
2022-11-21T03:39:12.704Z,0.10
2022-11-21T03:41:39.850Z,0.10
2022-11-21T03:44:08.166Z,0.20
2022-11-21T03:46:36.738Z,0.90
2022-11-21T03:49:04.094Z,0.22
2022-11-21T03:51:31.040Z,0.40
2022-11-21T03:53:58.179Z,0.10
2022-11-21T03:56:26.235Z,0.17
2022-11-21T03:58:53.546Z,0.20
2022-11-21T04:01:21.028Z,0.20
2022-11-21T04:03:48.251Z,0.40
2022-11-21T04:06:16.491Z,0.50
2022-11-21T04:08:44.179Z,0.50
2022-11-21T04:11:11.606Z,0.13
2022-11-21T04:13:38.686Z,0.30
2022-11-21T04:16:05.930Z,0.40
2022-11-21T04:18:34.215Z,0.20
2022-11-21T04:21:02.296Z,0.35
2022-11-21T04:23:29.622Z,0.30
2022-11-21T04:25:56.778Z,0.60
2022-11-21T04:28:24.027Z,0.15
2022-11-21T04:30:54.763Z,0.10
2022-11-21T04:33:22.163Z,0.10
2022-11-21T04:35:49.342Z,0.10
2022-11-21T04:38:16.447Z,0.20
2022-11-21T04:40:45.407Z,0.30
2022-11-21T04:43:12.475Z,0.20
2022-11-21T04:45:39.580Z,0.20
2022-11-21T04:48:06.814Z,0.20
2022-11-21T04:50:33.898Z,0.40
2022-11-21T04:53:01.049Z,0.00
2022-11-21T04:55:29.517Z,0.15
2022-11-21T04:57:56.575Z,0.10
2022-11-21T05:00:24.541Z,0.10
2022-11-21T05:02:52.006Z,0.10
2022-11-21T05:05:19.362Z,0.20
2022-11-21T05:07:46.487Z,0.10
2022-11-21T05:10:13.590Z,0.10
2022-11-21T05:13:00.568Z,0.28
2022-11-21T05:15:27.691Z,0.10
2022-11-21T05:17:54.763Z,0.10
2022-11-21T05:20:21.840Z,0.00
2022-11-21T05:22:52.067Z,0.10
2022-11-21T05:25:19.194Z,0.20
2022-11-21T05:27:46.357Z,1.10
2022-11-21T05:30:13.521Z,0.93
2022-11-21T05:32:40.604Z,0.88
2022-11-21T05:35:08.167Z,0.90
2022-11-21T05:37:35.452Z,1.05
2022-11-21T05:40:02.499Z,1.00
2022-11-21T05:42:49.485Z,0.93
2022-11-21T05:45:16.563Z,0.90
2022-11-21T05:47:43.616Z,1.10
2022-11-21T05:50:10.736Z,1.05
2022-11-21T05:52:37.779Z,0.90
2022-11-21T05:55:04.967Z,1.00
2022-11-21T05:57:32.012Z,2.25
2022-11-21T05:59:59.082Z,1.92
2022-11-21T06:02:49.107Z,1.15
2022-11-21T06:05:16.227Z,1.90
2022-11-21T06:07:43.393Z,1.70
2022-11-21T06:10:10.495Z,1.50
2022-11-21T06:12:37.574Z,1.87
2022-11-21T06:15:04.696Z,2.60
2022-11-21T06:17:31.827Z,3.20
2022-11-21T06:19:58.859Z,1.90
2022-11-21T06:22:25.951Z,1.38
2022-11-21T06:24:52.994Z,2.50
2022-11-21T06:27:20.038Z,2.83
2022-11-21T06:29:47.087Z,1.10
2022-11-21T06:32:14.205Z,1.25
2022-11-21T06:34:41.391Z,1.17
2022-11-21T06:37:08.430Z,1.30
2022-11-21T06:39:35.507Z,1.45
2022-11-21T06:42:02.744Z,1.50
2022-11-21T06:44:30.315Z,2.40
2022-11-21T06:46:57.490Z,2.00
2022-11-21T06:49:24.591Z,1.80
2022-11-21T06:51:51.723Z,3.70
2022-11-21T06:54:18.823Z,2.20
2022-11-21T06:56:45.917Z,1.70
2022-11-21T06:59:13.000Z,1.50
2022-11-21T07:01:40.128Z,2.00
2022-11-21T07:04:07.248Z,1.80
2022-11-21T07:06:35.061Z,2.33
2022-11-21T07:11:49.230Z,2.33
2022-11-21T07:14:17.160Z,2.50
2022-11-21T07:16:44.219Z,1.92
2022-11-21T07:19:11.647Z,1.90
2022-11-21T07:21:38.857Z,2.30
2022-11-21T07:24:06.250Z,2.10
2022-11-21T07:26:33.330Z,2.03
2022-11-21T07:29:00.440Z,2.05
2022-11-21T07:31:27.648Z,2.28
2022-11-21T07:33:54.807Z,1.80
2022-11-21T07:36:21.880Z,1.90
2022-11-21T07:38:49.007Z,2.10
2022-11-21T07:41:16.024Z,2.13
2022-11-21T07:43:43.125Z,2.90
2022-11-21T07:46:10.172Z,2.60
2022-11-21T07:48:37.275Z,3.10
2022-11-21T07:51:05.210Z,2.35
2022-11-21T07:53:32.318Z,2.70
2022-11-21T07:56:00.066Z,2.50
2022-11-21T07:58:27.296Z,2.67
2022-11-21T08:00:54.370Z,2.40
2022-11-21T08:03:22.518Z,2.50
2022-11-21T08:05:49.623Z,2.30
2022-11-21T08:08:16.728Z,2.58
2022-11-21T08:10:44.911Z,2.30
2022-11-21T08:13:12.418Z,1.85
2022-11-21T08:15:39.795Z,2.03
2022-11-21T08:18:10.803Z,2.00
2022-11-21T08:20:37.847Z,1.80
2022-11-21T08:23:05.978Z,1.77
2022-11-21T08:25:33.399Z,1.50
2022-11-21T08:28:00.412Z,1.60
2022-11-21T08:30:27.414Z,1.70
2022-11-21T08:32:54.476Z,1.73
2022-11-21T08:35:21.621Z,1.77
2022-11-21T08:37:48.660Z,1.80
2022-11-21T08:40:15.931Z,1.90
2022-11-21T08:42:43.037Z,1.83
2022-11-21T08:45:10.350Z,1.60
2022-11-21T08:47:37.489Z,1.77
2022-11-21T08:50:08.847Z,1.80
2022-11-21T08:52:36.330Z,1.73
2022-11-21T08:55:03.355Z,1.70
2022-11-21T08:57:31.516Z,1.70
2022-11-21T08:59:58.554Z,1.77
2022-11-21T09:02:25.657Z,1.50
2022-11-21T09:04:53.383Z,1.87
2022-11-21T09:07:20.487Z,1.73
2022-11-21T09:09:47.619Z,1.90
2022-11-21T09:12:14.268Z,1.70
2022-11-21T09:15:01.222Z,1.92
2022-11-21T09:17:48.258Z,2.33
2022-11-21T09:20:15.447Z,1.90
2022-11-21T09:22:42.475Z,2.70
2022-11-21T09:25:10.001Z,3.20
2022-11-21T09:27:37.753Z,2.90
2022-11-21T09:30:05.076Z,3.33
2022-11-21T09:32:32.162Z,2.10
2022-11-21T09:34:59.218Z,2.50
2022-11-21T09:37:26.269Z,3.10
2022-11-21T09:39:53.310Z,2.97
2022-11-21T09:42:40.318Z,3.15
2022-11-21T09:45:07.553Z,2.53
2022-11-21T09:47:37.483Z,2.90
2022-11-21T09:50:06.717Z,2.58
2022-11-21T09:52:49.429Z,1.83
2022-11-21T09:55:22.060Z,1.80
2022-11-21T09:57:49.629Z,1.75
2022-11-21T10:00:25.103Z,2.00
2022-11-21T10:02:52.685Z,1.67
2022-11-21T10:05:24.049Z,1.92
2022-11-21T10:07:53.510Z,1.75
2022-11-21T10:10:28.305Z,1.67
2022-11-21T10:12:58.025Z,1.50
2022-11-21T10:15:25.241Z,3.00
2022-11-21T10:17:52.275Z,1.90
2022-11-21T10:20:45.292Z,2.38
2022-11-21T10:23:22.913Z,1.88
2022-11-21T10:25:54.468Z,3.22
2022-11-21T10:28:28.084Z,3.20
2022-11-21T10:30:56.900Z,2.22
2022-11-21T10:33:31.651Z,2.50
2022-11-21T10:36:01.638Z,1.77
2022-11-21T10:38:29.814Z,1.65
2022-11-21T10:41:17.135Z,1.90
2022-11-21T10:44:07.485Z,2.00
2022-11-21T10:46:34.511Z,2.40
2022-11-21T10:49:03.004Z,2.38
2022-11-21T10:51:49.961Z,2.00
2022-11-21T10:54:32.518Z,1.90
2022-11-21T10:57:12.341Z,1.75
2022-11-21T10:59:39.570Z,1.75
2022-11-21T11:02:13.962Z,1.85
2022-11-21T11:04:49.122Z,1.83
2022-11-21T11:07:23.013Z,1.48
2022-11-21T11:09:52.271Z,1.50
2022-11-21T11:12:54.532Z,1.38
2022-11-21T11:15:23.292Z,1.25
2022-11-21T11:17:51.903Z,1.25
2022-11-21T11:20:38.908Z,1.25
2022-11-21T11:23:22.417Z,1.37
2022-11-21T11:25:57.724Z,1.25
2022-11-21T11:28:25.676Z,1.10
2022-11-21T11:30:54.496Z,1.30
2022-11-21T11:33:38.921Z,1.10
2022-11-21T11:36:25.900Z,1.38
2022-11-21T11:38:56.431Z,1.55
2022-11-21T11:41:23.441Z,1.60
2022-11-21T11:44:23.500Z,1.60
2022-11-21T11:47:16.691Z,2.53
2022-11-21T11:50:09.112Z,3.97
2022-11-21T11:52:44.047Z,2.00
2022-11-21T11:55:25.796Z,2.08
2022-11-21T11:57:54.601Z,1.70
2022-11-21T12:00:25.813Z,2.20
2022-11-21T12:02:59.095Z,1.73
2022-11-21T12:05:27.401Z,1.52
2022-11-21T12:11:15.101Z,1.80
2022-11-21T12:13:42.631Z,2.10
2022-11-21T12:16:14.053Z,2.42
2022-11-21T12:18:48.308Z,2.97
2022-11-21T12:21:16.422Z,3.15
2022-11-21T12:23:49.287Z,3.72
2022-11-21T12:26:17.848Z,3.63
2022-11-21T12:29:00.761Z,3.35
2022-11-21T12:31:34.162Z,5.00
2022-11-21T12:34:16.659Z,8.52
2022-11-21T12:36:47.085Z,3.30
2022-11-21T12:39:30.086Z,2.10
2022-11-21T12:42:37.308Z,1.92
2022-11-21T12:45:05.331Z,1.65
2022-11-21T12:47:59.369Z,1.92
2022-11-21T12:50:52.272Z,1.40
2022-11-21T12:53:59.175Z,1.80
2022-11-21T12:56:33.759Z,1.70
2022-11-21T12:59:01.363Z,2.10
2022-11-21T13:01:35.722Z,2.20
2022-11-21T13:04:05.399Z,2.40
2022-11-21T13:06:34.585Z,1.73
2022-11-21T13:09:03.339Z,1.77
2022-11-21T13:11:50.319Z,1.70
2022-11-21T13:14:20.909Z,1.80
2022-11-21T13:16:54.230Z,1.60
2022-11-21T13:19:21.327Z,1.58
2022-11-21T13:21:49.727Z,1.60
2022-11-21T13:24:36.711Z,1.60
2022-11-21T13:27:03.775Z,1.38
2022-11-21T13:29:31.213Z,1.40
2022-11-21T13:31:58.616Z,1.10
2022-11-21T13:34:32.958Z,1.33
2022-11-21T13:37:00.039Z,1.50
2022-11-21T13:39:31.105Z,1.50
2022-11-21T13:42:26.306Z,1.50
2022-11-21T13:44:53.544Z,1.48
2022-11-21T13:47:45.618Z,1.55
2022-11-21T13:50:21.419Z,1.50
2022-11-21T13:52:52.160Z,1.27
2022-11-21T13:55:35.827Z,1.13
2022-11-21T13:58:10.867Z,1.00
2022-11-21T14:00:38.117Z,1.30
2022-11-21T14:03:25.370Z,1.52
2022-11-21T14:06:00.154Z,1.40
2022-11-21T14:08:27.813Z,1.40
2022-11-21T14:10:56.121Z,1.30
2022-11-21T14:13:27.965Z,1.50
2022-11-21T14:15:58.285Z,1.65
2022-11-21T14:18:25.735Z,1.83
2022-11-21T14:20:56.795Z,1.70
2022-11-21T14:23:25.026Z,1.45
2022-11-21T14:25:57.322Z,1.60
2022-11-21T14:28:24.351Z,1.70
2022-11-21T14:30:58.281Z,1.50
2022-11-21T14:33:25.515Z,1.63
2022-11-21T14:35:55.766Z,2.08
2022-11-21T14:38:23.111Z,4.45
2022-11-21T14:40:50.729Z,5.47
2022-11-21T14:43:22.436Z,2.00
2022-11-21T14:45:50.208Z,1.40
2022-11-21T14:48:26.103Z,1.20
2022-11-21T14:50:53.162Z,1.60
2022-11-21T14:53:20.270Z,1.70
2022-11-21T14:55:54.641Z,1.42
2022-11-21T14:58:23.974Z,2.55
2022-11-21T15:01:02.485Z,3.30
2022-11-21T15:03:29.763Z,2.00
2022-11-21T15:06:04.560Z,1.80
2022-11-21T15:11:23.421Z,1.30
2022-11-21T15:16:41.164Z,1.60
2022-11-21T15:19:10.107Z,1.45
2022-11-21T15:21:36.959Z,1.40
2022-11-21T15:24:24.307Z,1.60
2022-11-21T15:26:51.401Z,1.30
2022-11-21T15:29:20.933Z,1.75
2022-11-21T15:32:05.944Z,2.40
2022-11-21T15:34:35.756Z,2.60
2022-11-21T15:37:12.530Z,7.18
2022-11-21T15:39:43.500Z,3.97
2022-11-21T15:42:30.485Z,4.20
2022-11-21T15:44:58.703Z,3.10
2022-11-21T15:47:25.727Z,2.85
2022-11-21T15:49:53.219Z,2.90
2022-11-21T15:52:20.280Z,2.40
2022-11-21T15:54:48.242Z,1.88
2022-11-21T15:57:16.655Z,5.22
2022-11-21T15:59:44.250Z,5.20
2022-11-21T16:02:13.368Z,3.70
2022-11-21T16:04:41.096Z,3.58
2022-11-21T16:07:08.329Z,3.20
2022-11-21T16:09:36.412Z,2.83
2022-11-21T16:12:03.508Z,2.60
2022-11-21T16:14:30.585Z,2.60
2022-11-21T16:16:57.682Z,2.38
2022-11-21T16:19:24.709Z,2.30
2022-11-21T16:21:51.842Z,10.57
2022-11-21T16:24:18.891Z,8.25
2022-11-21T16:26:47.126Z,7.40
2022-11-21T16:29:14.276Z,8.63
2022-11-21T16:31:41.337Z,13.93
2022-11-21T16:34:08.438Z,13.02
2022-11-21T16:36:35.561Z,11.55
2022-11-21T16:39:08.996Z,9.63
2022-11-21T16:41:39.190Z,5.47
2022-11-21T16:44:11.852Z,3.70
2022-11-21T16:46:41.783Z,3.60
2022-11-21T16:49:09.814Z,3.53
2022-11-21T16:51:36.933Z,3.20
2022-11-21T16:54:08.540Z,3.20
2022-11-21T16:56:36.383Z,4.40
2022-11-21T16:59:03.517Z,5.72
2022-11-21T17:01:30.756Z,9.93
2022-11-21T17:03:57.481Z,6.45
2022-11-21T17:06:26.999Z,6.80
2022-11-21T17:08:54.112Z,5.60
2022-11-21T17:11:22.410Z,4.93
2022-11-21T17:13:50.209Z,4.55
2022-11-21T17:16:18.810Z,4.55
2022-11-21T17:18:46.221Z,4.60
2022-11-21T17:21:14.456Z,5.90
2022-11-21T17:23:42.439Z,5.47
2022-11-21T17:26:10.878Z,5.10
2022-11-21T17:28:42.317Z,7.18
2022-11-21T17:31:13.379Z,7.90
2022-11-21T17:33:40.516Z,5.78
2022-11-21T17:36:08.741Z,4.95
2022-11-21T17:38:35.818Z,5.10
2022-11-21T17:41:03.581Z,5.20
2022-11-21T17:43:31.038Z,5.18
2022-11-21T17:46:07.893Z,4.90
2022-11-21T17:48:37.129Z,5.00
2022-11-21T17:51:05.259Z,5.20
2022-11-21T17:53:33.117Z,5.10
2022-11-21T17:56:00.741Z,7.83
2022-11-21T17:58:28.235Z,8.02
2022-11-21T18:00:56.320Z,8.77
2022-11-21T18:03:23.405Z,9.47
2022-11-21T18:05:59.612Z,8.68
2022-11-21T18:08:26.783Z,8.20
2022-11-21T18:10:54.210Z,7.80
2022-11-21T18:13:21.283Z,7.82
2022-11-21T18:15:48.328Z,9.05
2022-11-21T18:18:15.402Z,7.65
2022-11-21T18:20:42.452Z,6.63
2022-11-21T18:23:09.628Z,6.03
2022-11-21T18:25:37.139Z,6.57
2022-11-21T18:28:04.607Z,6.90
2022-11-21T18:30:32.416Z,7.35
2022-11-21T18:32:59.891Z,6.57
2022-11-21T18:35:27.119Z,5.18
2022-11-21T18:37:55.526Z,5.53
2022-11-21T18:40:22.775Z,10.35
2022-11-21T18:42:49.737Z,9.70
2022-11-21T18:45:16.791Z,8.95
2022-11-21T18:47:43.928Z,7.68
2022-11-21T18:50:11.076Z,7.60
2022-11-21T18:52:42.240Z,7.00
2022-11-21T18:55:13.332Z,7.55
2022-11-21T18:57:40.379Z,7.10
2022-11-21T19:00:07.800Z,7.13
2022-11-21T19:02:34.931Z,7.27
2022-11-21T19:05:02.017Z,9.13
2022-11-21T19:07:29.159Z,8.17
2022-11-21T19:10:09.513Z,7.17
2022-11-21T19:12:43.394Z,5.60
2022-11-21T19:15:10.680Z,6.55
2022-11-21T19:17:37.724Z,5.43
2022-11-21T19:20:05.036Z,4.85
2022-11-21T19:22:32.072Z,5.50
2022-11-21T19:24:59.120Z,6.50
2022-11-21T19:27:26.195Z,8.68
2022-11-21T19:29:55.198Z,17.95
2022-11-21T19:32:22.291Z,10.07
2022-11-21T19:34:49.439Z,7.13
2022-11-21T19:37:16.696Z,8.38
2022-11-21T19:39:43.727Z,7.72
2022-11-21T19:42:10.863Z,6.90
2022-11-21T19:44:37.907Z,5.75
2022-11-21T19:47:05.016Z,6.03
2022-11-21T19:49:32.118Z,6.95
2022-11-21T19:51:59.273Z,5.50
2022-11-21T19:54:26.523Z,5.65
2022-11-21T19:56:53.861Z,6.20
2022-11-21T19:59:21.691Z,7.10
2022-11-21T20:01:52.532Z,5.97
2022-11-21T20:04:20.500Z,6.03
2022-11-21T20:06:47.701Z,6.90
2022-11-21T20:09:16.552Z,5.40
2022-11-21T20:11:44.593Z,8.48
2022-11-21T20:14:19.594Z,8.13
2022-11-21T20:16:49.215Z,5.43
2022-11-21T20:19:17.428Z,5.93
2022-11-21T20:21:45.415Z,6.43
2022-11-21T20:24:12.635Z,5.22
2022-11-21T20:26:40.364Z,5.50
2022-11-21T20:29:07.683Z,6.30
2022-11-21T20:31:36.986Z,5.30
2022-11-21T20:34:05.860Z,5.50
2022-11-21T20:36:34.426Z,5.50
2022-11-21T20:39:02.739Z,5.38
2022-11-21T20:41:30.757Z,5.45
2022-11-21T20:46:46.319Z,5.20
2022-11-21T20:49:13.347Z,6.07
2022-11-21T20:54:28.487Z,6.07
2022-11-21T20:56:55.847Z,6.40
2022-11-21T20:59:23.302Z,6.15
2022-11-21T21:01:50.431Z,5.90
2022-11-21T21:04:17.590Z,5.87
2022-11-21T21:06:44.634Z,6.07
2022-11-21T21:09:11.775Z,6.18
2022-11-21T21:11:54.166Z,5.50
2022-11-21T21:14:22.165Z,5.65
2022-11-21T21:16:49.356Z,5.57
2022-11-21T21:19:17.065Z,5.30
2022-11-21T21:21:44.203Z,6.07
2022-11-21T21:24:11.955Z,5.70
2022-11-21T21:26:42.878Z,5.30
2022-11-21T21:29:12.035Z,5.32
2022-11-21T21:31:39.175Z,4.80
2022-11-21T21:34:06.446Z,5.13
2022-11-21T21:36:33.570Z,4.57
2022-11-21T21:39:00.982Z,4.70
2022-11-21T21:41:29.309Z,4.97
2022-11-21T21:43:57.289Z,5.32
2022-11-21T21:46:25.579Z,4.72
2022-11-21T21:48:55.762Z,4.40
2022-11-21T21:51:24.874Z,4.32
2022-11-21T21:53:52.610Z,4.32
2022-11-21T21:56:20.740Z,4.33
2022-11-21T21:58:48.486Z,4.47
2022-11-21T22:01:16.985Z,5.63
2022-11-21T22:03:44.674Z,5.40
2022-11-21T22:06:13.094Z,4.70
2022-11-21T22:08:40.666Z,4.50
2022-11-21T22:11:09.682Z,4.17
2022-11-21T22:13:37.176Z,4.20
2022-11-21T22:16:05.229Z,6.07
2022-11-21T22:18:32.388Z,6.75
2022-11-21T22:20:59.505Z,6.25
2022-11-21T22:23:26.930Z,5.68
2022-11-21T22:25:56.079Z,5.32
2022-11-21T22:28:23.371Z,7.05
2022-11-21T22:30:58.288Z,6.45
2022-11-21T22:33:25.911Z,6.38
2022-11-21T22:35:53.547Z,8.50
2022-11-21T22:38:20.621Z,6.93
2022-11-21T22:40:47.868Z,6.40
2022-11-21T22:43:14.897Z,6.07
2022-11-21T22:45:42.002Z,6.37
2022-11-21T22:48:09.113Z,6.47
2022-11-21T22:50:36.204Z,6.75
2022-11-21T22:53:03.226Z,6.90
2022-11-21T22:55:30.248Z,6.85
2022-11-21T22:57:58.002Z,7.30
2022-11-21T23:00:24.985Z,7.50
2022-11-21T23:02:51.729Z,6.70
2022-11-21T23:05:18.759Z,6.85
2022-11-21T23:07:45.917Z,6.35
2022-11-21T23:10:12.983Z,5.50
2022-11-21T23:12:40.024Z,5.60
2022-11-21T23:15:07.262Z,5.05
2022-11-21T23:17:34.333Z,5.15
2022-11-21T23:20:01.407Z,5.20
2022-11-21T23:22:28.476Z,5.22
2022-11-21T23:24:55.543Z,4.72
2022-11-21T23:27:22.572Z,5.20
2022-11-21T23:29:49.666Z,5.37
2022-11-21T23:32:17.067Z,5.57
2022-11-21T23:34:44.077Z,5.32
2022-11-21T23:37:11.428Z,5.00
2022-11-21T23:39:38.456Z,5.38
2022-11-21T23:42:05.503Z,5.25
2022-11-21T23:44:32.653Z,5.60
2022-11-21T23:46:59.716Z,5.60
2022-11-21T23:49:27.095Z,6.30
2022-11-21T23:51:54.363Z,5.70
2022-11-21T23:54:21.416Z,5.78
2022-11-21T23:56:48.500Z,6.00
2022-11-21T23:59:15.037Z,5.70
